createdAt,value
2022-10-09T00:00:40.374Z,75.90
2022-10-09T00:03:07.304Z,75.71
2022-10-09T00:05:33.919Z,75.08
2022-10-09T00:08:00.634Z,72.88
2022-10-09T00:10:27.389Z,71.24
2022-10-09T00:12:53.976Z,71.16
2022-10-09T00:15:20.704Z,69.79
2022-10-09T00:17:47.271Z,68.89
2022-10-09T00:20:16.147Z,69.11
2022-10-09T00:22:43.643Z,69.97
2022-10-09T00:25:10.323Z,70.35
2022-10-09T00:27:36.903Z,66.80
2022-10-09T00:30:03.901Z,66.76
2022-10-09T00:32:30.470Z,67.47
2022-10-09T00:34:57.042Z,67.45
2022-10-09T00:37:23.659Z,66.49
2022-10-09T00:39:50.409Z,66.67
2022-10-09T00:42:16.984Z,67.18
2022-10-09T00:45:00.457Z,67.70
2022-10-09T00:47:36.560Z,68.31
2022-10-09T00:50:10.366Z,69.65
2022-10-09T00:52:36.933Z,69.33
2022-10-09T00:55:03.773Z,69.04
2022-10-09T00:57:31.814Z,68.53
2022-10-09T00:59:59.284Z,68.69
2022-10-09T01:02:25.923Z,68.24
2022-10-09T01:04:52.929Z,68.46
2022-10-09T01:07:56.573Z,68.61
2022-10-09T01:10:52.389Z,68.80
2022-10-09T01:13:37.670Z,69.51
2022-10-09T01:16:08.343Z,69.70
2022-10-09T01:18:40.791Z,69.88
2022-10-09T01:21:35.978Z,70.00
2022-10-09T01:24:05.569Z,69.55
2022-10-09T01:26:58.631Z,69.01
2022-10-09T01:29:27.128Z,68.91
2022-10-09T01:31:53.691Z,69.33
2022-10-09T01:34:20.480Z,68.53
2022-10-09T01:36:47.089Z,68.93
2022-10-09T01:39:18.615Z,69.06
2022-10-09T01:41:46.725Z,68.98
2022-10-09T01:44:20.903Z,68.52
2022-10-09T01:46:47.700Z,68.91
2022-10-09T01:49:52.969Z,68.26
2022-10-09T01:52:44.722Z,68.89
2022-10-09T01:55:14.380Z,69.11
2022-10-09T01:57:45.906Z,69.26
2022-10-09T02:00:12.704Z,69.47
2022-10-09T02:02:39.906Z,69.70
2022-10-09T02:05:07.029Z,69.76
2022-10-09T02:07:33.783Z,70.04
2022-10-09T02:10:01.051Z,70.42
2022-10-09T02:12:28.368Z,70.51
2022-10-09T02:14:54.947Z,70.53
2022-10-09T02:17:23.400Z,70.36
2022-10-09T02:19:58.676Z,70.66
2022-10-09T02:22:28.852Z,70.89
2022-10-09T02:24:55.512Z,70.86
2022-10-09T02:27:22.499Z,70.99
2022-10-09T02:29:49.360Z,70.88
2022-10-09T02:32:16.045Z,70.51
2022-10-09T02:34:42.738Z,70.55
2022-10-09T02:37:09.321Z,70.79
2022-10-09T02:39:35.945Z,71.03
2022-10-09T02:42:03.092Z,70.56
2022-10-09T02:44:29.705Z,69.98
2022-10-09T02:46:56.350Z,68.74
2022-10-09T02:49:22.982Z,69.31
2022-10-09T02:51:49.591Z,69.41
2022-10-09T02:54:16.206Z,69.24
2022-10-09T02:56:42.800Z,68.91
2022-10-09T02:59:09.449Z,69.83
2022-10-09T03:01:36.292Z,69.11
2022-10-09T03:04:03.096Z,69.56
2022-10-09T03:06:29.721Z,68.33
2022-10-09T03:08:56.484Z,68.42
2022-10-09T03:11:24.075Z,68.39
2022-10-09T03:13:50.983Z,67.88
2022-10-09T03:16:22.217Z,67.74
2022-10-09T03:18:49.417Z,67.72
2022-10-09T03:21:18.166Z,67.99
2022-10-09T03:23:44.910Z,67.36
2022-10-09T03:26:13.881Z,68.07
2022-10-09T03:28:41.681Z,67.78
2022-10-09T03:31:08.586Z,68.19
2022-10-09T03:33:35.731Z,68.58
2022-10-09T03:36:02.423Z,67.83
2022-10-09T03:38:28.977Z,67.92
2022-10-09T03:40:55.564Z,67.99
2022-10-09T03:43:22.173Z,68.14
2022-10-09T03:45:49.040Z,67.91
2022-10-09T03:48:15.684Z,68.31
2022-10-09T03:50:42.369Z,68.64
2022-10-09T03:53:10.141Z,68.35
2022-10-09T03:55:36.865Z,69.06
2022-10-09T03:58:03.705Z,69.09
2022-10-09T04:00:30.441Z,69.21
2022-10-09T04:02:57.216Z,69.21
2022-10-09T04:05:23.830Z,69.30
2022-10-09T04:07:50.523Z,70.09
2022-10-09T04:10:17.183Z,70.26
2022-10-09T04:12:43.744Z,70.34
2022-10-09T04:15:10.689Z,70.68
2022-10-09T04:17:37.441Z,71.16
2022-10-09T04:20:04.339Z,70.75
2022-10-09T04:22:30.975Z,71.31
2022-10-09T04:24:57.579Z,71.33
2022-10-09T04:27:24.375Z,71.16
2022-10-09T04:29:50.980Z,71.64
2022-10-09T04:32:17.721Z,71.80
2022-10-09T04:34:44.407Z,72.10
2022-10-09T04:37:11.007Z,72.09
2022-10-09T04:39:37.587Z,72.72
2022-10-09T04:42:04.376Z,72.81
2022-10-09T04:44:30.940Z,72.68
2022-10-09T04:46:57.516Z,72.75
2022-10-09T04:49:24.056Z,72.83
2022-10-09T04:51:50.642Z,73.73
2022-10-09T04:54:17.239Z,73.75
2022-10-09T04:56:43.804Z,73.53
2022-10-09T04:59:10.368Z,73.64
2022-10-09T05:01:38.484Z,73.70
2022-10-09T05:04:05.422Z,74.16
2022-10-09T05:06:32.044Z,74.41
2022-10-09T05:08:58.672Z,74.52
2022-10-09T05:11:25.579Z,74.74
2022-10-09T05:13:54.921Z,75.46
2022-10-09T05:16:23.558Z,75.41
2022-10-09T05:18:51.689Z,75.60
2022-10-09T05:21:18.442Z,75.48
2022-10-09T05:23:45.269Z,75.55
2022-10-09T05:26:13.802Z,75.76
2022-10-09T05:28:40.715Z,75.52
2022-10-09T05:31:07.582Z,76.33
2022-10-09T05:33:34.588Z,76.31
2022-10-09T05:36:02.579Z,76.41
2022-10-09T05:38:29.252Z,75.98
2022-10-09T05:40:55.719Z,76.66
2022-10-09T05:43:48.800Z,75.49
2022-10-09T05:46:17.546Z,76.03
2022-10-09T05:48:45.437Z,74.88
2022-10-09T05:51:17.552Z,75.22
2022-10-09T05:53:44.701Z,74.49
2022-10-09T05:56:18.264Z,74.23
2022-10-09T05:58:49.232Z,74.41
2022-10-09T06:01:15.814Z,74.09
2022-10-09T06:03:42.653Z,74.39
2022-10-09T06:06:09.431Z,73.59
2022-10-09T06:08:36.780Z,73.49
2022-10-09T06:11:31.665Z,73.04
2022-10-09T06:13:59.084Z,73.11
2022-10-09T06:16:27.089Z,73.19
2022-10-09T06:18:54.268Z,72.50
2022-10-09T06:21:23.620Z,72.50
2022-10-09T06:23:54.209Z,72.42
2022-10-09T06:26:21.511Z,72.39
2022-10-09T06:28:48.384Z,71.89
2022-10-09T06:31:17.064Z,71.17
2022-10-09T06:33:44.307Z,71.71
2022-10-09T06:36:15.056Z,71.22
2022-10-09T06:38:41.771Z,71.52
2022-10-09T06:41:11.004Z,70.76
2022-10-09T06:43:37.908Z,70.76
2022-10-09T06:46:05.992Z,70.40
2022-10-09T06:48:33.220Z,70.83
2022-10-09T06:51:03.819Z,70.98
2022-10-09T06:53:30.512Z,70.08
2022-10-09T06:55:57.589Z,70.27
2022-10-09T06:58:35.039Z,70.33
2022-10-09T07:01:15.708Z,70.15
2022-10-09T07:03:43.587Z,70.56
2022-10-09T07:06:15.097Z,69.91
2022-10-09T07:08:42.633Z,70.11
2022-10-09T07:11:14.367Z,69.91
2022-10-09T07:13:42.174Z,69.77
2022-10-09T07:16:09.366Z,68.63
2022-10-09T07:18:36.135Z,68.73
2022-10-09T07:21:03.608Z,68.93
2022-10-09T07:23:30.826Z,68.95
2022-10-09T07:25:57.776Z,69.33
2022-10-09T07:28:25.525Z,70.21
2022-10-09T07:30:52.731Z,70.12
2022-10-09T07:33:19.620Z,69.94
2022-10-09T07:35:59.362Z,70.09
2022-10-09T07:38:25.979Z,69.65
2022-10-09T07:40:52.856Z,69.08
2022-10-09T07:43:19.695Z,68.89
2022-10-09T07:45:46.478Z,67.49
2022-10-09T07:48:13.487Z,61.78
2022-10-09T07:50:40.171Z,59.76
2022-10-09T07:53:08.865Z,58.24
2022-10-09T07:55:36.026Z,55.42
2022-10-09T07:58:02.924Z,55.71
2022-10-09T08:00:29.566Z,53.38
2022-10-09T08:03:20.184Z,53.27
2022-10-09T08:05:54.639Z,53.74
2022-10-09T08:08:21.292Z,53.49
2022-10-09T08:10:48.625Z,52.33
2022-10-09T08:13:15.635Z,50.17
2022-10-09T08:15:43.130Z,47.85
2022-10-09T08:18:10.375Z,44.80
2022-10-09T08:20:37.326Z,42.67
2022-10-09T08:23:04.020Z,44.25
2022-10-09T08:25:33.702Z,43.50
2022-10-09T08:28:00.503Z,44.22
2022-10-09T08:30:27.818Z,44.56
2022-10-09T08:32:54.418Z,45.25
2022-10-09T08:35:21.451Z,45.58
2022-10-09T08:37:48.218Z,47.04
2022-10-09T08:40:21.080Z,49.04
2022-10-09T08:42:58.210Z,49.88
2022-10-09T08:45:24.903Z,50.35
2022-10-09T08:48:00.142Z,51.30
2022-10-09T08:50:29.604Z,51.67
2022-10-09T08:53:23.925Z,52.07
2022-10-09T08:55:53.761Z,53.85
2022-10-09T08:58:21.205Z,54.05
2022-10-09T09:00:54.111Z,53.74
2022-10-09T09:03:32.896Z,53.73
2022-10-09T09:06:37.613Z,54.88
2022-10-09T09:09:10.172Z,54.89
2022-10-09T09:15:58.330Z,55.36
2022-10-09T09:18:37.569Z,54.42
2022-10-09T09:21:16.573Z,55.03
2022-10-09T09:23:46.282Z,55.23
2022-10-09T09:26:17.888Z,53.92
2022-10-09T09:28:44.732Z,55.92
2022-10-09T09:31:26.644Z,55.65
2022-10-09T09:33:58.302Z,56.52
2022-10-09T09:36:27.101Z,56.18
2022-10-09T09:39:36.239Z,56.78
2022-10-09T09:41:41.889Z,55.33
2022-10-09T09:44:10.288Z,54.64
2022-10-09T09:46:37.037Z,53.99
2022-10-09T09:49:08.524Z,54.75
2022-10-09T09:51:36.215Z,54.69
2022-10-09T09:54:06.022Z,54.31
2022-10-09T09:56:59.722Z,53.75
2022-10-09T09:59:30.784Z,54.62
2022-10-09T10:02:09.064Z,54.52
2022-10-09T10:04:38.800Z,55.17
2022-10-09T10:07:09.183Z,55.07
2022-10-09T10:09:36.080Z,54.44
2022-10-09T10:12:04.004Z,54.95
2022-10-09T10:14:31.082Z,55.24
2022-10-09T10:16:59.218Z,52.84
2022-10-09T10:19:27.284Z,53.77
2022-10-09T10:21:58.832Z,53.99
2022-10-09T10:24:31.502Z,54.00
2022-10-09T10:27:25.121Z,54.47
2022-10-09T10:29:54.774Z,54.19
2022-10-09T10:32:56.074Z,54.06
2022-10-09T10:35:31.079Z,53.51
2022-10-09T10:37:57.638Z,53.12
2022-10-09T10:40:36.633Z,53.43
2022-10-09T10:43:09.452Z,53.40
2022-10-09T10:45:56.359Z,53.35
2022-10-09T10:48:32.040Z,52.62
2022-10-09T10:51:29.256Z,53.33
2022-10-09T10:54:14.150Z,53.86
2022-10-09T10:56:49.714Z,54.21
2022-10-09T10:59:16.710Z,54.51
2022-10-09T11:01:49.125Z,54.56
2022-10-09T11:04:54.163Z,53.04
2022-10-09T11:07:52.959Z,53.69
2022-10-09T11:10:58.717Z,53.23
2022-10-09T11:13:44.856Z,53.18
2022-10-09T11:16:26.812Z,53.51
2022-10-09T11:19:00.166Z,54.24
2022-10-09T11:21:32.716Z,54.16
2022-10-09T11:24:21.009Z,53.26
2022-10-09T11:27:03.026Z,53.19
2022-10-09T11:29:34.659Z,53.93
2022-10-09T11:32:24.782Z,54.20
2022-10-09T11:38:37.596Z,51.32
2022-10-09T11:41:07.425Z,51.41
2022-10-09T11:43:48.310Z,51.82
2022-10-09T11:46:33.593Z,52.15
2022-10-09T11:49:23.836Z,53.88
2022-10-09T11:52:09.055Z,51.94
2022-10-09T11:54:35.732Z,51.95
2022-10-09T11:57:06.202Z,52.94
2022-10-09T11:59:37.984Z,51.11
2022-10-09T12:02:22.412Z,52.03
2022-10-09T12:04:56.272Z,49.36
2022-10-09T12:07:41.188Z,50.04
2022-10-09T12:10:09.989Z,48.88
2022-10-09T12:12:38.876Z,49.56
2022-10-09T12:15:52.865Z,50.41
2022-10-09T12:18:24.465Z,50.72
2022-10-09T12:20:51.111Z,50.57
2022-10-09T12:23:28.175Z,51.37
2022-10-09T12:25:55.819Z,50.27
2022-10-09T12:28:31.564Z,50.28
2022-10-09T12:30:59.930Z,48.98
2022-10-09T12:33:41.871Z,50.30
2022-10-09T12:36:15.312Z,50.54
2022-10-09T12:38:42.489Z,50.21
2022-10-09T12:41:21.986Z,51.67
2022-10-09T12:43:49.978Z,51.62
2022-10-09T12:46:31.203Z,51.20
2022-10-09T12:48:58.313Z,50.34
2022-10-09T12:51:26.973Z,51.09
2022-10-09T12:53:53.876Z,49.78
2022-10-09T12:56:33.611Z,49.81
2022-10-09T12:59:00.758Z,50.32
2022-10-09T13:01:27.528Z,50.96
2022-10-09T13:03:58.140Z,50.43
2022-10-09T13:06:38.249Z,50.32
2022-10-09T13:09:06.621Z,50.50
2022-10-09T13:11:40.711Z,51.14
2022-10-09T13:14:08.075Z,50.46
2022-10-09T13:16:42.391Z,50.85
2022-10-09T13:19:26.681Z,50.89
2022-10-09T13:22:20.463Z,51.29
2022-10-09T13:24:47.730Z,52.84
2022-10-09T13:27:14.782Z,52.09
2022-10-09T13:29:42.944Z,51.16
2022-10-09T13:32:14.946Z,51.00
2022-10-09T13:34:41.634Z,52.32
2022-10-09T13:37:20.295Z,51.36
2022-10-09T13:39:47.386Z,51.12
2022-10-09T13:42:14.704Z,52.72
2022-10-09T13:44:41.428Z,50.63
2022-10-09T13:47:08.124Z,50.70
2022-10-09T13:49:34.787Z,50.89
2022-10-09T13:52:01.537Z,50.86
2022-10-09T13:54:28.283Z,50.88
2022-10-09T14:00:41.284Z,50.02
2022-10-09T14:03:08.099Z,50.97
2022-10-09T14:05:34.824Z,50.69
2022-10-09T14:08:01.522Z,51.73
2022-10-09T14:10:28.522Z,52.43
2022-10-09T14:12:55.192Z,51.44
2022-10-09T14:15:21.869Z,52.01
2022-10-09T14:17:48.904Z,52.36
2022-10-09T14:20:15.652Z,52.88
2022-10-09T14:22:42.301Z,52.56
2022-10-09T14:25:09.365Z,52.81
2022-10-09T14:27:38.270Z,53.00
2022-10-09T14:30:07.871Z,53.97
2022-10-09T14:32:34.580Z,53.70
2022-10-09T14:35:01.323Z,53.68
2022-10-09T14:37:40.946Z,53.41
2022-10-09T14:40:09.493Z,53.41
2022-10-09T14:42:37.151Z,53.22
2022-10-09T14:45:04.389Z,53.78
2022-10-09T14:47:31.084Z,54.06
2022-10-09T14:49:57.767Z,53.96
2022-10-09T14:52:24.398Z,53.04
2022-10-09T14:54:51.092Z,52.91
2022-10-09T14:57:17.747Z,52.90
2022-10-09T14:59:44.418Z,53.18
2022-10-09T15:02:14.369Z,52.23
2022-10-09T15:04:41.050Z,52.38
2022-10-09T15:07:07.688Z,52.36
2022-10-09T15:09:34.630Z,52.08
2022-10-09T15:12:01.280Z,52.63
2022-10-09T15:14:27.963Z,52.17
2022-10-09T15:16:54.656Z,52.35
2022-10-09T15:19:21.339Z,53.03
2022-10-09T15:21:47.975Z,52.44
2022-10-09T15:24:14.651Z,52.37
2022-10-09T15:26:42.089Z,52.83
2022-10-09T15:29:08.859Z,53.02
2022-10-09T15:31:39.899Z,53.37
2022-10-09T15:34:07.595Z,53.60
2022-10-09T15:36:36.123Z,53.72
2022-10-09T15:39:06.023Z,54.44
2022-10-09T15:41:34.196Z,54.42
2022-10-09T15:44:13.639Z,53.97
2022-10-09T15:46:40.448Z,54.14
2022-10-09T15:49:07.897Z,54.17
2022-10-09T15:51:34.967Z,54.52
2022-10-09T15:54:01.874Z,55.18
2022-10-09T15:56:28.541Z,55.05
2022-10-09T15:58:55.392Z,55.77
2022-10-09T16:01:22.267Z,56.23
2022-10-09T16:03:49.045Z,56.39
2022-10-09T16:06:17.774Z,56.77
2022-10-09T16:08:44.537Z,57.15
2022-10-09T16:11:12.473Z,57.79
2022-10-09T16:13:40.542Z,57.83
2022-10-09T16:16:09.437Z,58.49
2022-10-09T16:18:36.405Z,58.41
2022-10-09T16:21:14.646Z,59.08
2022-10-09T16:23:42.111Z,59.39
2022-10-09T16:26:09.137Z,60.63
2022-10-09T16:28:36.371Z,60.80
2022-10-09T16:31:03.235Z,61.19
2022-10-09T16:33:29.967Z,61.69
2022-10-09T16:36:10.010Z,62.24
2022-10-09T16:38:37.516Z,62.62
2022-10-09T16:41:07.330Z,62.22
2022-10-09T16:43:34.049Z,62.71
2022-10-09T16:49:02.424Z,63.75
2022-10-09T16:51:33.967Z,64.06
2022-10-09T16:54:01.429Z,64.63
2022-10-09T16:56:29.983Z,64.76
2022-10-09T16:58:58.621Z,64.45
2022-10-09T17:01:25.705Z,64.96
2022-10-09T17:03:56.542Z,65.49
2022-10-09T17:10:04.312Z,65.20
2022-10-09T17:12:31.036Z,65.49
2022-10-09T17:14:57.707Z,65.80
2022-10-09T17:17:24.432Z,66.24
2022-10-09T17:22:17.718Z,67.26
2022-10-09T17:24:44.386Z,66.94
2022-10-09T17:27:11.127Z,66.93
2022-10-09T17:29:37.799Z,67.38
2022-10-09T17:32:04.824Z,67.10
2022-10-09T17:34:31.543Z,66.97
2022-10-09T17:36:58.308Z,67.24
2022-10-09T17:39:25.127Z,67.46
2022-10-09T17:41:51.789Z,68.08
2022-10-09T17:44:18.466Z,69.28
2022-10-09T17:46:45.176Z,69.40
2022-10-09T17:49:12.893Z,69.03
2022-10-09T17:51:42.389Z,68.86
2022-10-09T17:54:12.638Z,68.86
2022-10-09T17:56:39.550Z,69.52
2022-10-09T17:59:06.271Z,70.33
2022-10-09T18:01:33.042Z,70.08
2022-10-09T18:03:59.764Z,70.09
2022-10-09T18:06:26.522Z,70.33
2022-10-09T18:08:54.399Z,70.45
2022-10-09T18:11:21.536Z,70.52
2022-10-09T18:13:48.241Z,70.72
2022-10-09T18:16:20.555Z,70.83
2022-10-09T18:18:47.269Z,71.16
2022-10-09T18:21:18.147Z,70.76
2022-10-09T18:23:47.570Z,70.38
2022-10-09T18:26:16.649Z,71.31
2022-10-09T18:28:46.061Z,72.55
2022-10-09T18:31:17.419Z,72.59
2022-10-09T18:33:44.043Z,72.52
2022-10-09T18:36:22.971Z,72.88
2022-10-09T18:38:51.447Z,72.67
2022-10-09T18:41:18.380Z,74.12
2022-10-09T18:43:45.130Z,74.64
2022-10-09T18:49:53.071Z,74.33
2022-10-09T18:52:19.781Z,74.36
2022-10-09T18:54:47.616Z,75.14
2022-10-09T18:57:14.292Z,76.15
2022-10-09T18:59:41.198Z,76.12
2022-10-09T19:02:07.962Z,75.65
2022-10-09T19:04:34.636Z,75.14
2022-10-09T19:07:01.453Z,74.97
2022-10-09T19:09:28.482Z,74.24
2022-10-09T19:11:57.952Z,74.05
2022-10-09T19:14:27.311Z,74.07
2022-10-09T19:16:54.360Z,74.25
2022-10-09T19:19:21.118Z,74.83
2022-10-09T19:21:47.804Z,74.96
2022-10-09T19:24:14.540Z,75.43
2022-10-09T19:26:41.339Z,74.78
2022-10-09T19:29:08.153Z,74.54
2022-10-09T19:31:35.650Z,75.24
2022-10-09T19:34:03.279Z,75.38
2022-10-09T19:36:33.294Z,75.28
2022-10-09T19:39:00.984Z,75.43
2022-10-09T19:41:28.219Z,75.75
2022-10-09T19:43:54.880Z,75.90
2022-10-09T19:46:22.737Z,75.84
2022-10-09T19:48:50.273Z,76.04
2022-10-09T19:51:22.131Z,75.92
2022-10-09T19:53:48.830Z,75.83
2022-10-09T19:56:20.287Z,76.51
2022-10-09T19:58:47.500Z,76.84
2022-10-09T20:01:15.547Z,76.96
2022-10-09T20:03:42.458Z,76.40
2022-10-09T20:06:09.340Z,76.10
2022-10-09T20:08:36.852Z,76.98
2022-10-09T20:11:03.903Z,76.74
2022-10-09T20:13:33.538Z,76.37
2022-10-09T20:16:01.024Z,75.92
2022-10-09T20:18:27.878Z,76.29
2022-10-09T20:20:54.529Z,76.36
2022-10-09T20:23:21.332Z,76.46
2022-10-09T20:25:48.001Z,76.17
2022-10-09T20:28:15.341Z,76.13
2022-10-09T20:30:42.567Z,76.43
2022-10-09T20:33:09.513Z,76.33
2022-10-09T20:35:45.299Z,76.22
2022-10-09T20:38:12.096Z,76.01
2022-10-09T20:40:38.748Z,76.44
2022-10-09T20:43:05.455Z,76.11
2022-10-09T20:45:32.076Z,76.02
2022-10-09T20:47:58.741Z,76.22
2022-10-09T20:50:25.432Z,76.45
2022-10-09T20:53:35.819Z,76.27
2022-10-09T20:56:06.430Z,76.47
2022-10-09T20:58:35.290Z,75.75
2022-10-09T21:01:05.546Z,76.40
2022-10-09T21:03:32.317Z,76.37
2022-10-09T21:05:59.040Z,76.06
2022-10-09T21:08:25.786Z,76.30
2022-10-09T21:10:52.393Z,75.93
2022-10-09T21:13:19.077Z,76.21
2022-10-09T21:15:47.292Z,76.42
2022-10-09T21:18:14.701Z,76.22
2022-10-09T21:20:42.813Z,76.35
2022-10-09T21:23:10.015Z,76.34
2022-10-09T21:25:37.736Z,76.30
2022-10-09T21:28:04.743Z,76.69
2022-10-09T21:30:31.557Z,76.23
2022-10-09T21:32:58.161Z,76.47
2022-10-09T21:35:24.831Z,76.13
2022-10-09T21:37:51.606Z,75.69
2022-10-09T21:40:18.331Z,76.04
2022-10-09T21:42:45.041Z,75.77
2022-10-09T21:45:13.560Z,75.75
2022-10-09T21:47:40.222Z,75.59
2022-10-09T21:50:07.186Z,76.51
2022-10-09T21:52:33.897Z,76.58
2022-10-09T21:55:00.592Z,76.50
2022-10-09T21:57:27.573Z,76.13
2022-10-09T21:59:55.059Z,76.49
2022-10-09T22:02:21.684Z,76.31
2022-10-09T22:04:48.557Z,76.49
2022-10-09T22:07:15.213Z,76.85
2022-10-09T22:09:41.882Z,76.49
2022-10-09T22:12:08.509Z,77.09
2022-10-09T22:14:35.425Z,76.96
2022-10-09T22:17:03.598Z,77.01
2022-10-09T22:19:31.885Z,76.92
2022-10-09T22:21:58.936Z,76.60
2022-10-09T22:24:29.114Z,76.91
2022-10-09T22:26:57.121Z,76.87
2022-10-09T22:29:24.918Z,76.87
2022-10-09T22:31:51.716Z,77.13
2022-10-09T22:34:18.863Z,77.12
2022-10-09T22:36:45.613Z,76.88
2022-10-09T22:39:12.466Z,77.37
2022-10-09T22:41:39.246Z,77.17
2022-10-09T22:44:07.272Z,77.40
2022-10-09T22:46:38.598Z,77.48
2022-10-09T22:49:06.080Z,77.23
2022-10-09T22:51:32.780Z,77.54
2022-10-09T22:53:59.722Z,78.00
2022-10-09T22:56:31.923Z,77.91
2022-10-09T22:58:58.632Z,77.59
2022-10-09T23:01:31.371Z,77.76
2022-10-09T23:04:02.030Z,77.22
2022-10-09T23:06:28.712Z,77.84
2022-10-09T23:08:55.423Z,77.67
2022-10-09T23:11:22.806Z,77.71
2022-10-09T23:13:54.138Z,78.01
2022-10-09T23:16:20.836Z,77.93
2022-10-09T23:18:47.477Z,77.64
2022-10-09T23:21:15.837Z,77.79
2022-10-09T23:23:42.907Z,77.74
2022-10-09T23:26:12.227Z,77.91
2022-10-09T23:28:38.976Z,78.18
2022-10-09T23:31:10.403Z,78.15
2022-10-09T23:33:39.515Z,78.38
2022-10-09T23:36:06.545Z,78.35
2022-10-09T23:38:33.273Z,78.59
2022-10-09T23:41:01.463Z,78.64
2022-10-09T23:43:28.764Z,78.05
2022-10-09T23:45:55.917Z,78.63
2022-10-09T23:48:22.579Z,78.62
2022-10-09T23:50:49.817Z,78.27
2022-10-09T23:53:16.558Z,78.27
2022-10-09T23:55:43.882Z,78.83
2022-10-09T23:58:10.880Z,78.20
